sensor_id;sensor_type;location;lat;lon;timestamp;P1;durP1;ratioP1;P2;durP2;ratioP2
74849;SDS011;63397;47.480;19.238;2024-01-16T00:01:25;1.17;;;0.33;;
74849;SDS011;63397;47.480;19.238;2024-01-16T00:04:27;1.85;;;0.65;;
74849;SDS011;63397;47.480;19.238;2024-01-16T00:07:31;0.28;;;0.22;;
74849;SDS011;63397;47.480;19.238;2024-01-16T00:10:35;1.00;;;0.40;;
74849;SDS011;63397;47.480;19.238;2024-01-16T00:13:38;1.20;;;0.40;;
74849;SDS011;63397;47.480;19.238;2024-01-16T00:16:44;1.07;;;0.30;;
74849;SDS011;63397;47.480;19.238;2024-01-16T00:19:46;0.20;;;0.17;;
74849;SDS011;63397;47.480;19.238;2024-01-16T00:22:48;0.32;;;0.20;;
74849;SDS011;63397;47.480;19.238;2024-01-16T00:25:51;0.45;;;0.15;;
74849;SDS011;63397;47.480;19.238;2024-01-16T00:28:53;0.63;;;0.13;;
74849;SDS011;63397;47.480;19.238;2024-01-16T00:31:55;1.20;;;0.73;;
74849;SDS011;63397;47.480;19.238;2024-01-16T00:34:58;0.22;;;0.08;;
74849;SDS011;63397;47.480;19.238;2024-01-16T00:38:00;1.83;;;0.55;;
74849;SDS011;63397;47.480;19.238;2024-01-16T00:41:02;0.55;;;0.13;;
74849;SDS011;63397;47.480;19.238;2024-01-16T00:44:04;2.20;;;0.50;;
74849;SDS011;63397;47.480;19.238;2024-01-16T00:47:07;0.93;;;0.40;;
74849;SDS011;63397;47.480;19.238;2024-01-16T00:50:09;1.00;;;0.30;;
74849;SDS011;63397;47.480;19.238;2024-01-16T00:53:11;0.90;;;0.38;;
74849;SDS011;63397;47.480;19.238;2024-01-16T00:56:14;0.40;;;0.20;;
74849;SDS011;63397;47.480;19.238;2024-01-16T00:59:16;0.27;;;0.27;;
74849;SDS011;63397;47.480;19.238;2024-01-16T01:02:18;4.47;;;0.93;;
74849;SDS011;63397;47.480;19.238;2024-01-16T01:05:21;5.25;;;0.38;;
74849;SDS011;63397;47.480;19.238;2024-01-16T01:08:26;0.57;;;0.20;;
74849;SDS011;63397;47.480;19.238;2024-01-16T01:11:29;2.83;;;0.47;;
74849;SDS011;63397;47.480;19.238;2024-01-16T01:14:31;1.07;;;0.33;;
74849;SDS011;63397;47.480;19.238;2024-01-16T01:17:33;0.87;;;0.20;;
74849;SDS011;63397;47.480;19.238;2024-01-16T01:20:36;0.57;;;0.28;;
74849;SDS011;63397;47.480;19.238;2024-01-16T01:23:38;0.13;;;0.05;;
74849;SDS011;63397;47.480;19.238;2024-01-16T01:26:43;0.85;;;0.40;;
74849;SDS011;63397;47.480;19.238;2024-01-16T01:29:46;0.90;;;0.20;;
74849;SDS011;63397;47.480;19.238;2024-01-16T01:32:48;0.17;;;0.10;;
74849;SDS011;63397;47.480;19.238;2024-01-16T01:35:51;2.65;;;0.60;;
74849;SDS011;63397;47.480;19.238;2024-01-16T01:38:53;2.40;;;0.47;;
74849;SDS011;63397;47.480;19.238;2024-01-16T01:41:56;0.98;;;0.57;;
74849;SDS011;63397;47.480;19.238;2024-01-16T01:44:58;2.63;;;0.43;;
74849;SDS011;63397;47.480;19.238;2024-01-16T01:48:00;0.67;;;0.30;;
74849;SDS011;63397;47.480;19.238;2024-01-16T01:51:03;0.43;;;0.13;;
74849;SDS011;63397;47.480;19.238;2024-01-16T01:54:06;0.30;;;0.20;;
74849;SDS011;63397;47.480;19.238;2024-01-16T01:57:08;0.35;;;0.17;;
74849;SDS011;63397;47.480;19.238;2024-01-16T02:00:11;2.10;;;0.23;;
74849;SDS011;63397;47.480;19.238;2024-01-16T02:03:14;0.97;;;0.57;;
74849;SDS011;63397;47.480;19.238;2024-01-16T02:06:17;1.42;;;0.75;;
74849;SDS011;63397;47.480;19.238;2024-01-16T02:09:19;0.40;;;0.22;;
74849;SDS011;63397;47.480;19.238;2024-01-16T02:12:22;0.70;;;0.43;;
74849;SDS011;63397;47.480;19.238;2024-01-16T02:15:26;1.37;;;0.47;;
74849;SDS011;63397;47.480;19.238;2024-01-16T02:18:29;1.30;;;0.40;;
74849;SDS011;63397;47.480;19.238;2024-01-16T02:21:36;1.95;;;0.68;;
74849;SDS011;63397;47.480;19.238;2024-01-16T02:24:39;0.20;;;0.10;;
74849;SDS011;63397;47.480;19.238;2024-01-16T02:27:42;2.15;;;0.68;;
74849;SDS011;63397;47.480;19.238;2024-01-16T02:30:44;0.93;;;0.53;;
74849;SDS011;63397;47.480;19.238;2024-01-16T02:33:46;1.50;;;0.60;;
74849;SDS011;63397;47.480;19.238;2024-01-16T02:36:49;0.20;;;0.00;;
74849;SDS011;63397;47.480;19.238;2024-01-16T02:39:51;0.73;;;0.20;;
74849;SDS011;63397;47.480;19.238;2024-01-16T02:42:53;0.75;;;0.43;;
74849;SDS011;63397;47.480;19.238;2024-01-16T02:45:55;0.77;;;0.23;;
74849;SDS011;63397;47.480;19.238;2024-01-16T02:48:57;0.30;;;0.17;;
74849;SDS011;63397;47.480;19.238;2024-01-16T02:52:00;0.70;;;0.22;;
74849;SDS011;63397;47.480;19.238;2024-01-16T02:55:02;2.60;;;0.57;;
74849;SDS011;63397;47.480;19.238;2024-01-16T02:58:04;0.43;;;0.13;;
74849;SDS011;63397;47.480;19.238;2024-01-16T03:01:07;1.07;;;0.50;;
74849;SDS011;63397;47.480;19.238;2024-01-16T03:04:09;1.60;;;0.57;;
74849;SDS011;63397;47.480;19.238;2024-01-16T03:07:12;1.58;;;0.90;;
74849;SDS011;63397;47.480;19.238;2024-01-16T03:10:14;3.53;;;0.52;;
74849;SDS011;63397;47.480;19.238;2024-01-16T03:13:16;3.40;;;0.40;;
74849;SDS011;63397;47.480;19.238;2024-01-16T03:16:18;1.67;;;0.60;;
74849;SDS011;63397;47.480;19.238;2024-01-16T03:19:21;1.43;;;0.67;;
74849;SDS011;63397;47.480;19.238;2024-01-16T03:22:23;4.10;;;0.82;;
74849;SDS011;63397;47.480;19.238;2024-01-16T03:25:26;2.03;;;0.73;;
74849;SDS011;63397;47.480;19.238;2024-01-16T03:28:28;0.80;;;0.50;;
74849;SDS011;63397;47.480;19.238;2024-01-16T03:31:30;0.53;;;0.30;;
74849;SDS011;63397;47.480;19.238;2024-01-16T03:34:33;1.03;;;0.77;;
74849;SDS011;63397;47.480;19.238;2024-01-16T03:37:35;0.57;;;0.30;;
74849;SDS011;63397;47.480;19.238;2024-01-16T03:40:39;1.58;;;0.50;;
74849;SDS011;63397;47.480;19.238;2024-01-16T03:43:41;0.25;;;0.15;;
74849;SDS011;63397;47.480;19.238;2024-01-16T03:46:43;0.20;;;0.13;;
74849;SDS011;63397;47.480;19.238;2024-01-16T03:49:46;1.07;;;0.33;;
74849;SDS011;63397;47.480;19.238;2024-01-16T03:52:48;1.15;;;0.60;;
74849;SDS011;63397;47.480;19.238;2024-01-16T03:55:51;2.28;;;0.60;;
74849;SDS011;63397;47.480;19.238;2024-01-16T03:58:53;3.10;;;1.20;;
74849;SDS011;63397;47.480;19.238;2024-01-16T04:01:55;1.20;;;0.37;;
74849;SDS011;63397;47.480;19.238;2024-01-16T04:04:57;3.90;;;0.47;;
74849;SDS011;63397;47.480;19.238;2024-01-16T04:08:00;4.45;;;1.20;;
74849;SDS011;63397;47.480;19.238;2024-01-16T04:11:02;1.65;;;0.60;;
74849;SDS011;63397;47.480;19.238;2024-01-16T04:14:04;1.65;;;0.47;;
74849;SDS011;63397;47.480;19.238;2024-01-16T04:17:06;1.80;;;0.80;;
74849;SDS011;63397;47.480;19.238;2024-01-16T04:20:09;2.10;;;0.80;;
74849;SDS011;63397;47.480;19.238;2024-01-16T04:23:12;1.83;;;0.77;;
74849;SDS011;63397;47.480;19.238;2024-01-16T04:26:14;2.15;;;0.75;;
74849;SDS011;63397;47.480;19.238;2024-01-16T04:29:16;0.82;;;0.30;;
74849;SDS011;63397;47.480;19.238;2024-01-16T04:32:19;0.93;;;0.17;;
74849;SDS011;63397;47.480;19.238;2024-01-16T04:35:21;2.03;;;0.70;;
74849;SDS011;63397;47.480;19.238;2024-01-16T04:38:24;1.70;;;0.70;;
74849;SDS011;63397;47.480;19.238;2024-01-16T04:41:26;1.95;;;0.70;;
74849;SDS011;63397;47.480;19.238;2024-01-16T04:44:28;2.28;;;0.98;;
74849;SDS011;63397;47.480;19.238;2024-01-16T04:47:31;0.57;;;0.27;;
74849;SDS011;63397;47.480;19.238;2024-01-16T04:50:34;0.20;;;0.10;;
74849;SDS011;63397;47.480;19.238;2024-01-16T04:53:36;1.55;;;0.70;;
74849;SDS011;63397;47.480;19.238;2024-01-16T04:56:38;1.48;;;0.52;;
74849;SDS011;63397;47.480;19.238;2024-01-16T04:59:41;1.15;;;0.38;;
74849;SDS011;63397;47.480;19.238;2024-01-16T05:02:43;2.90;;;0.77;;
74849;SDS011;63397;47.480;19.238;2024-01-16T05:05:46;1.60;;;0.50;;
74849;SDS011;63397;47.480;19.238;2024-01-16T05:08:48;2.15;;;0.50;;
74849;SDS011;63397;47.480;19.238;2024-01-16T05:11:50;1.48;;;0.50;;
74849;SDS011;63397;47.480;19.238;2024-01-16T05:14:53;0.52;;;0.20;;
74849;SDS011;63397;47.480;19.238;2024-01-16T05:17:55;0.70;;;0.50;;
74849;SDS011;63397;47.480;19.238;2024-01-16T05:20:58;1.30;;;0.33;;
74849;SDS011;63397;47.480;19.238;2024-01-16T05:24:02;1.35;;;0.40;;
74849;SDS011;63397;47.480;19.238;2024-01-16T05:27:04;0.90;;;0.20;;
74849;SDS011;63397;47.480;19.238;2024-01-16T05:30:07;0.73;;;0.20;;
74849;SDS011;63397;47.480;19.238;2024-01-16T05:33:10;1.73;;;0.67;;
74849;SDS011;63397;47.480;19.238;2024-01-16T05:36:12;1.60;;;0.53;;
74849;SDS011;63397;47.480;19.238;2024-01-16T05:39:15;0.98;;;0.47;;
74849;SDS011;63397;47.480;19.238;2024-01-16T05:42:17;1.15;;;0.43;;
74849;SDS011;63397;47.480;19.238;2024-01-16T05:45:19;0.73;;;0.13;;
74849;SDS011;63397;47.480;19.238;2024-01-16T05:48:21;1.47;;;0.73;;
74849;SDS011;63397;47.480;19.238;2024-01-16T05:51:24;0.10;;;0.10;;
74849;SDS011;63397;47.480;19.238;2024-01-16T05:54:27;2.65;;;0.63;;
74849;SDS011;63397;47.480;19.238;2024-01-16T05:57:29;1.02;;;0.20;;
74849;SDS011;63397;47.480;19.238;2024-01-16T06:00:35;0.32;;;0.20;;
74849;SDS011;63397;47.480;19.238;2024-01-16T06:03:38;1.00;;;0.53;;
74849;SDS011;63397;47.480;19.238;2024-01-16T06:06:40;4.77;;;1.37;;
74849;SDS011;63397;47.480;19.238;2024-01-16T06:09:46;0.50;;;0.43;;
74849;SDS011;63397;47.480;19.238;2024-01-16T06:12:49;1.60;;;0.52;;
74849;SDS011;63397;47.480;19.238;2024-01-16T06:15:51;1.52;;;0.52;;
74849;SDS011;63397;47.480;19.238;2024-01-16T06:18:53;3.87;;;0.60;;
74849;SDS011;63397;47.480;19.238;2024-01-16T06:21:56;1.27;;;0.50;;
74849;SDS011;63397;47.480;19.238;2024-01-16T06:24:58;0.10;;;0.10;;
74849;SDS011;63397;47.480;19.238;2024-01-16T06:28:01;1.92;;;0.68;;
74849;SDS011;63397;47.480;19.238;2024-01-16T06:31:05;0.60;;;0.40;;
74849;SDS011;63397;47.480;19.238;2024-01-16T06:34:07;1.50;;;0.90;;
74849;SDS011;63397;47.480;19.238;2024-01-16T06:37:10;1.57;;;1.00;;
74849;SDS011;63397;47.480;19.238;2024-01-16T06:40:13;0.60;;;0.40;;
74849;SDS011;63397;47.480;19.238;2024-01-16T06:43:15;0.28;;;0.20;;
74849;SDS011;63397;47.480;19.238;2024-01-16T06:46:23;1.65;;;0.60;;
74849;SDS011;63397;47.480;19.238;2024-01-16T06:49:25;3.80;;;0.70;;
74849;SDS011;63397;47.480;19.238;2024-01-16T06:52:29;2.03;;;0.53;;
74849;SDS011;63397;47.480;19.238;2024-01-16T06:55:32;1.27;;;0.52;;
74849;SDS011;63397;47.480;19.238;2024-01-16T06:58:34;0.55;;;0.28;;
74849;SDS011;63397;47.480;19.238;2024-01-16T07:01:37;0.50;;;0.30;;
74849;SDS011;63397;47.480;19.238;2024-01-16T07:04:42;1.03;;;0.50;;
74849;SDS011;63397;47.480;19.238;2024-01-16T07:07:45;0.47;;;0.10;;
74849;SDS011;63397;47.480;19.238;2024-01-16T07:10:48;1.65;;;0.32;;
74849;SDS011;63397;47.480;19.238;2024-01-16T07:13:51;1.58;;;0.65;;
74849;SDS011;63397;47.480;19.238;2024-01-16T07:16:58;1.30;;;0.40;;
74849;SDS011;63397;47.480;19.238;2024-01-16T07:20:01;0.93;;;0.40;;
74849;SDS011;63397;47.480;19.238;2024-01-16T07:23:04;1.60;;;0.30;;
74849;SDS011;63397;47.480;19.238;2024-01-16T07:26:06;1.85;;;0.70;;
74849;SDS011;63397;47.480;19.238;2024-01-16T07:29:09;0.43;;;0.20;;
74849;SDS011;63397;47.480;19.238;2024-01-16T07:32:12;1.20;;;0.52;;
74849;SDS011;63397;47.480;19.238;2024-01-16T07:35:14;0.30;;;0.20;;
74849;SDS011;63397;47.480;19.238;2024-01-16T07:38:16;1.47;;;0.60;;
74849;SDS011;63397;47.480;19.238;2024-01-16T07:41:20;1.25;;;0.50;;
74849;SDS011;63397;47.480;19.238;2024-01-16T07:44:22;1.00;;;0.10;;
74849;SDS011;63397;47.480;19.238;2024-01-16T07:47:24;0.10;;;0.10;;
74849;SDS011;63397;47.480;19.238;2024-01-16T07:50:27;1.63;;;0.40;;
74849;SDS011;63397;47.480;19.238;2024-01-16T07:53:30;2.10;;;1.23;;
74849;SDS011;63397;47.480;19.238;2024-01-16T07:56:33;0.77;;;0.30;;
74849;SDS011;63397;47.480;19.238;2024-01-16T07:59:38;0.95;;;0.30;;
74849;SDS011;63397;47.480;19.238;2024-01-16T08:02:40;3.33;;;0.70;;
74849;SDS011;63397;47.480;19.238;2024-01-16T08:05:44;0.50;;;0.20;;
74849;SDS011;63397;47.480;19.238;2024-01-16T08:08:47;2.03;;;0.60;;
74849;SDS011;63397;47.480;19.238;2024-01-16T08:11:49;8.85;;;0.32;;
74849;SDS011;63397;47.480;19.238;2024-01-16T08:14:52;2.05;;;1.65;;
74849;SDS011;63397;47.480;19.238;2024-01-16T08:17:54;1.35;;;0.60;;
74849;SDS011;63397;47.480;19.238;2024-01-16T08:21:00;0.23;;;0.13;;
74849;SDS011;63397;47.480;19.238;2024-01-16T08:24:02;4.23;;;0.93;;
74849;SDS011;63397;47.480;19.238;2024-01-16T08:27:05;0.70;;;0.22;;
74849;SDS011;63397;47.480;19.238;2024-01-16T08:30:07;2.78;;;1.25;;
74849;SDS011;63397;47.480;19.238;2024-01-16T08:33:10;2.08;;;0.75;;
74849;SDS011;63397;47.480;19.238;2024-01-16T08:36:13;0.50;;;0.10;;
74849;SDS011;63397;47.480;19.238;2024-01-16T08:39:15;0.67;;;0.30;;
74849;SDS011;63397;47.480;19.238;2024-01-16T08:42:18;0.55;;;0.20;;
74849;SDS011;63397;47.480;19.238;2024-01-16T08:45:21;0.60;;;0.32;;
74849;SDS011;63397;47.480;19.238;2024-01-16T08:48:25;2.08;;;0.60;;
74849;SDS011;63397;47.480;19.238;2024-01-16T08:51:28;0.30;;;0.10;;
74849;SDS011;63397;47.480;19.238;2024-01-16T08:54:31;0.50;;;0.30;;
74849;SDS011;63397;47.480;19.238;2024-01-16T08:57:38;5.03;;;0.30;;
74849;SDS011;63397;47.480;19.238;2024-01-16T09:00:42;2.70;;;1.30;;
74849;SDS011;63397;47.480;19.238;2024-01-16T09:03:44;2.83;;;0.85;;
74849;SDS011;63397;47.480;19.238;2024-01-16T09:06:46;0.93;;;0.60;;
74849;SDS011;63397;47.480;19.238;2024-01-16T09:09:49;2.83;;;0.60;;
74849;SDS011;63397;47.480;19.238;2024-01-16T09:12:54;1.70;;;0.43;;
74849;SDS011;63397;47.480;19.238;2024-01-16T09:15:59;3.55;;;1.05;;
74849;SDS011;63397;47.480;19.238;2024-01-16T09:19:03;1.23;;;0.55;;
74849;SDS011;63397;47.480;19.238;2024-01-16T09:22:10;0.43;;;0.20;;
74849;SDS011;63397;47.480;19.238;2024-01-16T09:25:16;1.23;;;0.67;;
74849;SDS011;63397;47.480;19.238;2024-01-16T09:28:19;1.42;;;0.43;;
74849;SDS011;63397;47.480;19.238;2024-01-16T09:31:23;1.80;;;0.32;;
74849;SDS011;63397;47.480;19.238;2024-01-16T09:34:26;1.30;;;0.68;;
74849;SDS011;63397;47.480;19.238;2024-01-16T09:37:29;2.20;;;0.60;;
74849;SDS011;63397;47.480;19.238;2024-01-16T09:40:31;0.90;;;0.63;;
74849;SDS011;63397;47.480;19.238;2024-01-16T09:43:33;3.47;;;0.85;;
74849;SDS011;63397;47.480;19.238;2024-01-16T09:46:37;1.30;;;0.52;;
74849;SDS011;63397;47.480;19.238;2024-01-16T09:49:40;11.63;;;0.70;;
74849;SDS011;63397;47.480;19.238;2024-01-16T09:52:45;0.93;;;0.30;;
74849;SDS011;63397;47.480;19.238;2024-01-16T09:55:49;1.10;;;0.70;;
74849;SDS011;63397;47.480;19.238;2024-01-16T09:58:56;1.52;;;0.40;;
74849;SDS011;63397;47.480;19.238;2024-01-16T10:01:59;3.40;;;0.60;;
74849;SDS011;63397;47.480;19.238;2024-01-16T10:05:04;0.60;;;0.38;;
74849;SDS011;63397;47.480;19.238;2024-01-16T10:08:07;0.70;;;0.20;;
74849;SDS011;63397;47.480;19.238;2024-01-16T10:11:10;0.50;;;0.23;;
74849;SDS011;63397;47.480;19.238;2024-01-16T10:14:12;0.52;;;0.15;;
74849;SDS011;63397;47.480;19.238;2024-01-16T10:17:14;1.17;;;0.32;;
74849;SDS011;63397;47.480;19.238;2024-01-16T10:20:30;1.42;;;0.80;;
74849;SDS011;63397;47.480;19.238;2024-01-16T10:23:34;2.37;;;0.60;;
74849;SDS011;63397;47.480;19.238;2024-01-16T10:26:36;1.90;;;0.40;;
74849;SDS011;63397;47.480;19.238;2024-01-16T10:29:40;0.75;;;0.28;;
74849;SDS011;63397;47.480;19.238;2024-01-16T10:33:00;1.35;;;0.45;;
74849;SDS011;63397;47.480;19.238;2024-01-16T10:36:14;1.45;;;0.52;;
74849;SDS011;63397;47.480;19.238;2024-01-16T10:39:19;1.43;;;0.67;;
74849;SDS011;63397;47.480;19.238;2024-01-16T10:42:22;1.87;;;0.40;;
74849;SDS011;63397;47.480;19.238;2024-01-16T10:45:25;6.80;;;1.15;;
74849;SDS011;63397;47.480;19.238;2024-01-16T10:48:28;1.33;;;0.50;;
74849;SDS011;63397;47.480;19.238;2024-01-16T10:51:31;0.80;;;0.70;;
74849;SDS011;63397;47.480;19.238;2024-01-16T10:54:35;3.73;;;0.30;;
74849;SDS011;63397;47.480;19.238;2024-01-16T10:57:40;1.83;;;0.97;;
74849;SDS011;63397;47.480;19.238;2024-01-16T11:00:43;1.83;;;0.50;;
74849;SDS011;63397;47.480;19.238;2024-01-16T11:03:54;2.85;;;0.95;;
74849;SDS011;63397;47.480;19.238;2024-01-16T11:07:00;1.95;;;0.47;;
74849;SDS011;63397;47.480;19.238;2024-01-16T11:10:05;0.50;;;0.37;;
74849;SDS011;63397;47.480;19.238;2024-01-16T11:13:08;1.50;;;0.53;;
74849;SDS011;63397;47.480;19.238;2024-01-16T11:16:11;4.53;;;1.75;;
74849;SDS011;63397;47.480;19.238;2024-01-16T11:19:17;1.83;;;0.70;;
74849;SDS011;63397;47.480;19.238;2024-01-16T11:22:42;1.17;;;0.60;;
74849;SDS011;63397;47.480;19.238;2024-01-16T11:25:45;0.90;;;0.47;;
74849;SDS011;63397;47.480;19.238;2024-01-16T11:28:47;1.43;;;0.57;;
74849;SDS011;63397;47.480;19.238;2024-01-16T11:31:49;0.95;;;0.52;;
74849;SDS011;63397;47.480;19.238;2024-01-16T11:34:59;2.35;;;0.57;;
74849;SDS011;63397;47.480;19.238;2024-01-16T11:38:20;1.13;;;0.50;;
74849;SDS011;63397;47.480;19.238;2024-01-16T11:42:02;2.03;;;0.50;;
74849;SDS011;63397;47.480;19.238;2024-01-16T11:44:57;1.37;;;0.40;;
74849;SDS011;63397;47.480;19.238;2024-01-16T11:51:22;1.27;;;0.40;;
74849;SDS011;63397;47.480;19.238;2024-01-16T11:54:25;1.00;;;0.60;;
74849;SDS011;63397;47.480;19.238;2024-01-16T11:57:36;1.40;;;0.70;;
74849;SDS011;63397;47.480;19.238;2024-01-16T12:00:45;0.93;;;0.50;;
74849;SDS011;63397;47.480;19.238;2024-01-16T12:04:03;1.63;;;0.60;;
74849;SDS011;63397;47.480;19.238;2024-01-16T12:07:08;1.60;;;0.82;;
74849;SDS011;63397;47.480;19.238;2024-01-16T12:10:11;0.80;;;0.47;;
74849;SDS011;63397;47.480;19.238;2024-01-16T12:13:14;1.33;;;0.40;;
74849;SDS011;63397;47.480;19.238;2024-01-16T12:16:18;2.23;;;0.37;;
74849;SDS011;63397;47.480;19.238;2024-01-16T12:19:21;1.20;;;0.55;;
74849;SDS011;63397;47.480;19.238;2024-01-16T12:22:23;1.52;;;0.60;;
74849;SDS011;63397;47.480;19.238;2024-01-16T12:25:30;2.80;;;0.55;;
74849;SDS011;63397;47.480;19.238;2024-01-16T12:28:52;0.73;;;0.47;;
74849;SDS011;63397;47.480;19.238;2024-01-16T12:35:26;2.53;;;1.17;;
74849;SDS011;63397;47.480;19.238;2024-01-16T12:38:28;0.40;;;0.30;;
74849;SDS011;63397;47.480;19.238;2024-01-16T12:41:38;0.50;;;0.20;;
74849;SDS011;63397;47.480;19.238;2024-01-16T12:44:44;2.70;;;0.50;;
74849;SDS011;63397;47.480;19.238;2024-01-16T12:47:52;3.23;;;0.60;;
74849;SDS011;63397;47.480;19.238;2024-01-16T12:50:59;1.42;;;0.40;;
74849;SDS011;63397;47.480;19.238;2024-01-16T12:54:14;0.82;;;0.35;;
74849;SDS011;63397;47.480;19.238;2024-01-16T12:57:18;1.70;;;0.45;;
74849;SDS011;63397;47.480;19.238;2024-01-16T13:00:25;3.63;;;0.60;;
74849;SDS011;63397;47.480;19.238;2024-01-16T13:03:28;0.63;;;0.20;;
74849;SDS011;63397;47.480;19.238;2024-01-16T13:06:32;0.73;;;0.30;;
74849;SDS011;63397;47.480;19.238;2024-01-16T13:09:35;0.40;;;0.20;;
74849;SDS011;63397;47.480;19.238;2024-01-16T13:12:37;0.40;;;0.20;;
74849;SDS011;63397;47.480;19.238;2024-01-16T13:15:40;0.23;;;0.20;;
74849;SDS011;63397;47.480;19.238;2024-01-16T13:18:47;0.67;;;0.30;;
74849;SDS011;63397;47.480;19.238;2024-01-16T13:22:12;2.65;;;0.70;;
74849;SDS011;63397;47.480;19.238;2024-01-16T13:25:17;0.68;;;0.10;;
74849;SDS011;63397;47.480;19.238;2024-01-16T13:28:21;1.10;;;0.20;;
74849;SDS011;63397;47.480;19.238;2024-01-16T13:31:27;0.53;;;0.20;;
74849;SDS011;63397;47.480;19.238;2024-01-16T13:34:30;0.33;;;0.17;;
74849;SDS011;63397;47.480;19.238;2024-01-16T13:37:34;1.95;;;0.40;;
74849;SDS011;63397;47.480;19.238;2024-01-16T13:40:40;0.70;;;0.38;;
74849;SDS011;63397;47.480;19.238;2024-01-16T13:43:42;1.15;;;0.38;;
74849;SDS011;63397;47.480;19.238;2024-01-16T13:46:44;1.77;;;0.30;;
74849;SDS011;63397;47.480;19.238;2024-01-16T13:50:07;1.40;;;0.60;;
74849;SDS011;63397;47.480;19.238;2024-01-16T13:53:10;1.05;;;0.60;;
74849;SDS011;63397;47.480;19.238;2024-01-16T13:56:14;2.58;;;0.88;;
74849;SDS011;63397;47.480;19.238;2024-01-16T13:59:20;1.50;;;0.38;;
74849;SDS011;63397;47.480;19.238;2024-01-16T14:02:22;1.20;;;0.20;;
74849;SDS011;63397;47.480;19.238;2024-01-16T14:05:24;1.17;;;0.10;;
74849;SDS011;63397;47.480;19.238;2024-01-16T14:08:28;0.47;;;0.20;;
74849;SDS011;63397;47.480;19.238;2024-01-16T14:11:30;1.85;;;0.35;;
74849;SDS011;63397;47.480;19.238;2024-01-16T14:14:34;0.95;;;0.30;;
74849;SDS011;63397;47.480;19.238;2024-01-16T14:17:37;1.30;;;0.70;;
74849;SDS011;63397;47.480;19.238;2024-01-16T14:20:40;0.70;;;0.23;;
74849;SDS011;63397;47.480;19.238;2024-01-16T14:23:42;0.70;;;0.20;;
74849;SDS011;63397;47.480;19.238;2024-01-16T14:26:44;0.70;;;0.40;;
74849;SDS011;63397;47.480;19.238;2024-01-16T14:29:47;2.83;;;0.30;;
74849;SDS011;63397;47.480;19.238;2024-01-16T14:32:50;1.10;;;0.30;;
74849;SDS011;63397;47.480;19.238;2024-01-16T14:35:52;1.80;;;0.47;;
74849;SDS011;63397;47.480;19.238;2024-01-16T14:38:54;0.70;;;0.20;;
74849;SDS011;63397;47.480;19.238;2024-01-16T14:41:57;2.13;;;0.50;;
74849;SDS011;63397;47.480;19.238;2024-01-16T14:45:00;1.55;;;0.40;;
74849;SDS011;63397;47.480;19.238;2024-01-16T14:48:03;1.03;;;0.50;;
74849;SDS011;63397;47.480;19.238;2024-01-16T14:51:06;0.90;;;0.57;;
74849;SDS011;63397;47.480;19.238;2024-01-16T14:54:09;2.17;;;0.88;;
74849;SDS011;63397;47.480;19.238;2024-01-16T14:57:11;0.73;;;0.32;;
74849;SDS011;63397;47.480;19.238;2024-01-16T15:00:14;0.52;;;0.30;;
74849;SDS011;63397;47.480;19.238;2024-01-16T15:03:24;1.47;;;0.40;;
74849;SDS011;63397;47.480;19.238;2024-01-16T15:06:27;0.73;;;0.37;;
74849;SDS011;63397;47.480;19.238;2024-01-16T15:09:30;1.45;;;0.28;;
74849;SDS011;63397;47.480;19.238;2024-01-16T15:12:32;1.30;;;0.30;;
74849;SDS011;63397;47.480;19.238;2024-01-16T15:15:34;2.35;;;0.50;;
74849;SDS011;63397;47.480;19.238;2024-01-16T15:18:38;0.80;;;0.20;;
74849;SDS011;63397;47.480;19.238;2024-01-16T15:21:40;0.57;;;0.27;;
74849;SDS011;63397;47.480;19.238;2024-01-16T15:24:43;0.55;;;0.22;;
74849;SDS011;63397;47.480;19.238;2024-01-16T15:27:45;1.23;;;0.63;;
74849;SDS011;63397;47.480;19.238;2024-01-16T15:30:48;1.70;;;0.15;;
74849;SDS011;63397;47.480;19.238;2024-01-16T15:33:50;1.97;;;0.20;;
74849;SDS011;63397;47.480;19.238;2024-01-16T15:36:54;0.97;;;0.20;;
74849;SDS011;63397;47.480;19.238;2024-01-16T15:39:56;1.60;;;0.75;;
74849;SDS011;63397;47.480;19.238;2024-01-16T15:42:59;0.63;;;0.30;;
74849;SDS011;63397;47.480;19.238;2024-01-16T15:46:01;0.43;;;0.03;;
74849;SDS011;63397;47.480;19.238;2024-01-16T15:49:04;0.80;;;0.20;;
74849;SDS011;63397;47.480;19.238;2024-01-16T15:52:06;2.90;;;0.90;;
74849;SDS011;63397;47.480;19.238;2024-01-16T15:55:08;4.38;;;0.52;;
74849;SDS011;63397;47.480;19.238;2024-01-16T15:58:12;0.38;;;0.15;;
74849;SDS011;63397;47.480;19.238;2024-01-16T16:01:15;1.90;;;0.85;;
74849;SDS011;63397;47.480;19.238;2024-01-16T16:04:17;0.40;;;0.20;;
74849;SDS011;63397;47.480;19.238;2024-01-16T16:07:20;2.00;;;0.20;;
74849;SDS011;63397;47.480;19.238;2024-01-16T16:10:25;1.63;;;0.65;;
74849;SDS011;63397;47.480;19.238;2024-01-16T16:13:29;1.08;;;0.60;;
74849;SDS011;63397;47.480;19.238;2024-01-16T16:16:33;1.17;;;0.22;;
74849;SDS011;63397;47.480;19.238;2024-01-16T16:19:35;2.23;;;0.47;;
74849;SDS011;63397;47.480;19.238;2024-01-16T16:22:38;1.10;;;0.40;;
74849;SDS011;63397;47.480;19.238;2024-01-16T16:25:44;2.97;;;0.95;;
74849;SDS011;63397;47.480;19.238;2024-01-16T16:28:46;2.03;;;0.60;;
74849;SDS011;63397;47.480;19.238;2024-01-16T16:31:49;1.23;;;0.73;;
74849;SDS011;63397;47.480;19.238;2024-01-16T16:34:51;1.50;;;0.67;;
74849;SDS011;63397;47.480;19.238;2024-01-16T16:37:53;1.03;;;0.50;;
74849;SDS011;63397;47.480;19.238;2024-01-16T16:40:55;6.65;;;1.58;;
74849;SDS011;63397;47.480;19.238;2024-01-16T16:43:58;3.63;;;1.67;;
74849;SDS011;63397;47.480;19.238;2024-01-16T16:47:01;2.22;;;0.75;;
74849;SDS011;63397;47.480;19.238;2024-01-16T16:50:04;3.13;;;1.30;;
74849;SDS011;63397;47.480;19.238;2024-01-16T16:53:07;4.27;;;1.30;;
74849;SDS011;63397;47.480;19.238;2024-01-16T16:56:11;4.13;;;1.98;;
74849;SDS011;63397;47.480;19.238;2024-01-16T16:59:14;7.28;;;2.58;;
74849;SDS011;63397;47.480;19.238;2024-01-16T17:02:16;7.97;;;2.38;;
74849;SDS011;63397;47.480;19.238;2024-01-16T17:05:18;5.47;;;2.03;;
74849;SDS011;63397;47.480;19.238;2024-01-16T17:08:21;4.57;;;1.80;;
74849;SDS011;63397;47.480;19.238;2024-01-16T17:11:24;4.30;;;1.63;;
74849;SDS011;63397;47.480;19.238;2024-01-16T17:14:29;3.28;;;1.27;;
74849;SDS011;63397;47.480;19.238;2024-01-16T17:17:32;5.15;;;3.10;;
74849;SDS011;63397;47.480;19.238;2024-01-16T17:20:37;10.00;;;3.20;;
74849;SDS011;63397;47.480;19.238;2024-01-16T17:23:40;5.97;;;2.80;;
74849;SDS011;63397;47.480;19.238;2024-01-16T17:26:42;10.18;;;3.78;;
74849;SDS011;63397;47.480;19.238;2024-01-16T17:29:47;7.97;;;3.00;;
74849;SDS011;63397;47.480;19.238;2024-01-16T17:32:49;7.70;;;2.92;;
74849;SDS011;63397;47.480;19.238;2024-01-16T17:35:52;5.83;;;2.17;;
74849;SDS011;63397;47.480;19.238;2024-01-16T17:39:05;4.57;;;2.47;;
74849;SDS011;63397;47.480;19.238;2024-01-16T17:42:12;15.85;;;3.45;;
74849;SDS011;63397;47.480;19.238;2024-01-16T17:45:14;6.03;;;2.15;;
74849;SDS011;63397;47.480;19.238;2024-01-16T17:48:17;4.70;;;2.03;;
74849;SDS011;63397;47.480;19.238;2024-01-16T17:51:20;5.70;;;2.93;;
74849;SDS011;63397;47.480;19.238;2024-01-16T17:54:23;7.60;;;2.30;;
74849;SDS011;63397;47.480;19.238;2024-01-16T17:57:26;5.95;;;3.65;;
74849;SDS011;63397;47.480;19.238;2024-01-16T18:00:29;5.35;;;2.38;;
74849;SDS011;63397;47.480;19.238;2024-01-16T18:03:31;4.25;;;2.25;;
74849;SDS011;63397;47.480;19.238;2024-01-16T18:06:44;6.20;;;2.17;;
74849;SDS011;63397;47.480;19.238;2024-01-16T18:09:47;11.20;;;4.20;;
74849;SDS011;63397;47.480;19.238;2024-01-16T18:12:49;8.40;;;3.65;;
74849;SDS011;63397;47.480;19.238;2024-01-16T18:15:51;11.27;;;3.88;;